sensor_id;sensor_type;location;lat;lon;timestamp;P1;durP1;ratioP1;P2;durP2;ratioP2
82787;SDS011;72529;51.786;4.662;2024-02-21T00:02:06;5.25;;;5.19;;
82787;SDS011;72529;51.786;4.662;2024-02-21T00:04:32;5.18;;;5.15;;
82787;SDS011;72529;51.786;4.662;2024-02-21T00:06:57;5.28;;;5.18;;
82787;SDS011;72529;51.786;4.662;2024-02-21T00:09:22;5.32;;;5.29;;
82787;SDS011;72529;51.786;4.662;2024-02-21T00:11:48;5.10;;;5.09;;
82787;SDS011;72529;51.786;4.662;2024-02-21T00:14:13;5.10;;;5.10;;
82787;SDS011;72529;51.786;4.662;2024-02-21T00:16:39;5.67;;;5.53;;
82787;SDS011;72529;51.786;4.662;2024-02-21T00:19:04;5.49;;;5.35;;
82787;SDS011;72529;51.786;4.662;2024-02-21T00:21:30;5.03;;;4.90;;
82787;SDS011;72529;51.786;4.662;2024-02-21T00:23:55;5.24;;;5.18;;
82787;SDS011;72529;51.786;4.662;2024-02-21T00:26:20;4.92;;;4.76;;
82787;SDS011;72529;51.786;4.662;2024-02-21T00:28:46;5.17;;;5.01;;
82787;SDS011;72529;51.786;4.662;2024-02-21T00:31:11;5.17;;;5.02;;
82787;SDS011;72529;51.786;4.662;2024-02-21T00:33:37;5.18;;;5.05;;
82787;SDS011;72529;51.786;4.662;2024-02-21T00:36:02;4.79;;;4.64;;
82787;SDS011;72529;51.786;4.662;2024-02-21T00:38:28;5.29;;;5.06;;
82787;SDS011;72529;51.786;4.662;2024-02-21T00:40:54;5.23;;;4.88;;
82787;SDS011;72529;51.786;4.662;2024-02-21T00:43:19;5.33;;;4.95;;
82787;SDS011;72529;51.786;4.662;2024-02-21T00:45:48;5.06;;;4.73;;
82787;SDS011;72529;51.786;4.662;2024-02-21T00:48:14;4.70;;;4.41;;
82787;SDS011;72529;51.786;4.662;2024-02-21T00:50:39;4.78;;;4.45;;
82787;SDS011;72529;51.786;4.662;2024-02-21T00:53:05;4.94;;;4.63;;
82787;SDS011;72529;51.786;4.662;2024-02-21T00:55:30;5.22;;;4.85;;
82787;SDS011;72529;51.786;4.662;2024-02-21T00:57:56;5.38;;;4.93;;
82787;SDS011;72529;51.786;4.662;2024-02-21T01:00:21;5.38;;;4.88;;
82787;SDS011;72529;51.786;4.662;2024-02-21T01:02:47;4.82;;;4.43;;
82787;SDS011;72529;51.786;4.662;2024-02-21T01:05:12;4.78;;;4.44;;
82787;SDS011;72529;51.786;4.662;2024-02-21T01:07:38;4.78;;;4.50;;
82787;SDS011;72529;51.786;4.662;2024-02-21T01:10:03;5.15;;;4.76;;
82787;SDS011;72529;51.786;4.662;2024-02-21T01:12:29;5.46;;;5.06;;
82787;SDS011;72529;51.786;4.662;2024-02-21T01:14:55;4.85;;;4.53;;
82787;SDS011;72529;51.786;4.662;2024-02-21T01:17:20;4.73;;;4.47;;
82787;SDS011;72529;51.786;4.662;2024-02-21T01:19:46;4.81;;;4.54;;
82787;SDS011;72529;51.786;4.662;2024-02-21T01:22:11;5.09;;;4.81;;
82787;SDS011;72529;51.786;4.662;2024-02-21T01:24:37;5.11;;;4.86;;
82787;SDS011;72529;51.786;4.662;2024-02-21T01:27:02;4.55;;;4.39;;
82787;SDS011;72529;51.786;4.662;2024-02-21T01:29:28;5.30;;;5.12;;
82787;SDS011;72529;51.786;4.662;2024-02-21T01:31:53;4.97;;;4.77;;
82787;SDS011;72529;51.786;4.662;2024-02-21T01:34:19;5.06;;;4.87;;
82787;SDS011;72529;51.786;4.662;2024-02-21T01:36:44;5.32;;;5.08;;
82787;SDS011;72529;51.786;4.662;2024-02-21T01:39:09;5.20;;;4.92;;
82787;SDS011;72529;51.786;4.662;2024-02-21T01:41:35;5.44;;;5.19;;
82787;SDS011;72529;51.786;4.662;2024-02-21T01:44:00;5.22;;;5.01;;
82787;SDS011;72529;51.786;4.662;2024-02-21T01:46:26;5.13;;;4.91;;
82787;SDS011;72529;51.786;4.662;2024-02-21T01:48:56;5.15;;;4.99;;
82787;SDS011;72529;51.786;4.662;2024-02-21T01:51:22;4.75;;;4.73;;
82787;SDS011;72529;51.786;4.662;2024-02-21T01:53:49;5.10;;;4.97;;
82787;SDS011;72529;51.786;4.662;2024-02-21T01:56:17;5.36;;;5.19;;
82787;SDS011;72529;51.786;4.662;2024-02-21T01:58:43;5.54;;;5.36;;
82787;SDS011;72529;51.786;4.662;2024-02-21T02:01:09;5.62;;;5.45;;
82787;SDS011;72529;51.786;4.662;2024-02-21T02:03:35;5.90;;;5.74;;
82787;SDS011;72529;51.786;4.662;2024-02-21T02:06:02;5.76;;;5.65;;
82787;SDS011;72529;51.786;4.662;2024-02-21T02:08:27;5.66;;;5.60;;
82787;SDS011;72529;51.786;4.662;2024-02-21T02:10:53;5.35;;;5.33;;
82787;SDS011;72529;51.786;4.662;2024-02-21T02:13:19;5.66;;;5.60;;
82787;SDS011;72529;51.786;4.662;2024-02-21T02:15:45;5.68;;;5.58;;
82787;SDS011;72529;51.786;4.662;2024-02-21T02:18:13;5.28;;;5.21;;
82787;SDS011;72529;51.786;4.662;2024-02-21T02:20:40;5.87;;;5.85;;
82787;SDS011;72529;51.786;4.662;2024-02-21T02:25:52;5.77;;;5.67;;
82787;SDS011;72529;51.786;4.662;2024-02-21T02:28:18;5.78;;;5.65;;
82787;SDS011;72529;51.786;4.662;2024-02-21T02:30:44;5.63;;;5.61;;
82787;SDS011;72529;51.786;4.662;2024-02-21T02:33:10;5.15;;;5.11;;
82787;SDS011;72529;51.786;4.662;2024-02-21T02:35:36;5.50;;;5.42;;
82787;SDS011;72529;51.786;4.662;2024-02-21T02:38:02;5.21;;;5.21;;
82787;SDS011;72529;51.786;4.662;2024-02-21T02:40:28;5.29;;;5.29;;
82787;SDS011;72529;51.786;4.662;2024-02-21T02:42:53;5.64;;;5.59;;
82787;SDS011;72529;51.786;4.662;2024-02-21T02:45:20;5.70;;;5.59;;
82787;SDS011;72529;51.786;4.662;2024-02-21T02:47:48;5.56;;;5.47;;
82787;SDS011;72529;51.786;4.662;2024-02-21T02:50:13;5.62;;;5.56;;
82787;SDS011;72529;51.786;4.662;2024-02-21T02:52:39;5.52;;;5.45;;
82787;SDS011;72529;51.786;4.662;2024-02-21T02:55:05;5.51;;;5.42;;
82787;SDS011;72529;51.786;4.662;2024-02-21T02:57:31;5.47;;;5.41;;
82787;SDS011;72529;51.786;4.662;2024-02-21T02:59:57;5.56;;;5.55;;
82787;SDS011;72529;51.786;4.662;2024-02-21T03:02:22;5.51;;;5.51;;
82787;SDS011;72529;51.786;4.662;2024-02-21T03:04:48;5.73;;;5.73;;
82787;SDS011;72529;51.786;4.662;2024-02-21T03:07:14;5.63;;;5.60;;
82787;SDS011;72529;51.786;4.662;2024-02-21T03:09:40;5.74;;;5.68;;
82787;SDS011;72529;51.786;4.662;2024-02-21T03:12:08;6.10;;;6.06;;
82787;SDS011;72529;51.786;4.662;2024-02-21T03:14:34;5.63;;;5.62;;
82787;SDS011;72529;51.786;4.662;2024-02-21T03:17:00;6.30;;;6.27;;
82787;SDS011;72529;51.786;4.662;2024-02-21T03:19:27;6.61;;;6.59;;
82787;SDS011;72529;51.786;4.662;2024-02-21T03:21:53;6.42;;;6.38;;
82787;SDS011;72529;51.786;4.662;2024-02-21T03:24:19;6.63;;;6.58;;
82787;SDS011;72529;51.786;4.662;2024-02-21T03:26:45;6.64;;;6.61;;
82787;SDS011;72529;51.786;4.662;2024-02-21T03:29:15;6.62;;;6.62;;
82787;SDS011;72529;51.786;4.662;2024-02-21T03:31:41;6.42;;;6.42;;
82787;SDS011;72529;51.786;4.662;2024-02-21T03:34:08;6.25;;;6.24;;
82787;SDS011;72529;51.786;4.662;2024-02-21T03:36:35;6.53;;;6.51;;
82787;SDS011;72529;51.786;4.662;2024-02-21T03:39:00;6.70;;;6.68;;
82787;SDS011;72529;51.786;4.662;2024-02-21T03:41:26;6.58;;;6.54;;
82787;SDS011;72529;51.786;4.662;2024-02-21T03:43:51;6.87;;;6.83;;
82787;SDS011;72529;51.786;4.662;2024-02-21T03:46:17;6.52;;;6.50;;
82787;SDS011;72529;51.786;4.662;2024-02-21T03:48:42;6.51;;;6.51;;
82787;SDS011;72529;51.786;4.662;2024-02-21T03:51:08;6.81;;;6.81;;
82787;SDS011;72529;51.786;4.662;2024-02-21T03:53:33;6.66;;;6.66;;
82787;SDS011;72529;51.786;4.662;2024-02-21T03:56:01;6.91;;;6.91;;
82787;SDS011;72529;51.786;4.662;2024-02-21T03:58:29;6.88;;;6.88;;
82787;SDS011;72529;51.786;4.662;2024-02-21T04:00:55;6.97;;;6.97;;
82787;SDS011;72529;51.786;4.662;2024-02-21T04:03:20;6.74;;;6.73;;
82787;SDS011;72529;51.786;4.662;2024-02-21T04:05:46;7.03;;;7.03;;
82787;SDS011;72529;51.786;4.662;2024-02-21T04:08:11;6.69;;;6.69;;
82787;SDS011;72529;51.786;4.662;2024-02-21T04:10:37;6.57;;;6.56;;
82787;SDS011;72529;51.786;4.662;2024-02-21T04:13:03;6.56;;;6.56;;
82787;SDS011;72529;51.786;4.662;2024-02-21T04:15:30;6.23;;;6.22;;
82787;SDS011;72529;51.786;4.662;2024-02-21T04:17:55;6.55;;;6.55;;
82787;SDS011;72529;51.786;4.662;2024-02-21T04:20:21;6.65;;;6.64;;
82787;SDS011;72529;51.786;4.662;2024-02-21T04:22:46;7.25;;;7.25;;
82787;SDS011;72529;51.786;4.662;2024-02-21T04:25:12;7.35;;;7.35;;
82787;SDS011;72529;51.786;4.662;2024-02-21T04:27:38;7.39;;;7.39;;
82787;SDS011;72529;51.786;4.662;2024-02-21T04:30:04;8.03;;;7.99;;
82787;SDS011;72529;51.786;4.662;2024-02-21T04:32:31;8.48;;;8.47;;
82787;SDS011;72529;51.786;4.662;2024-02-21T04:34:57;8.52;;;8.52;;
82787;SDS011;72529;51.786;4.662;2024-02-21T04:37:22;7.85;;;7.85;;
82787;SDS011;72529;51.786;4.662;2024-02-21T04:39:48;8.43;;;8.43;;
82787;SDS011;72529;51.786;4.662;2024-02-21T04:42:14;8.22;;;8.22;;
82787;SDS011;72529;51.786;4.662;2024-02-21T04:44:40;8.33;;;8.33;;
82787;SDS011;72529;51.786;4.662;2024-02-21T04:47:06;8.85;;;8.85;;
82787;SDS011;72529;51.786;4.662;2024-02-21T04:49:32;8.85;;;8.84;;
82787;SDS011;72529;51.786;4.662;2024-02-21T04:51:58;8.79;;;8.77;;
82787;SDS011;72529;51.786;4.662;2024-02-21T04:54:24;9.12;;;9.10;;
82787;SDS011;72529;51.786;4.662;2024-02-21T04:56:49;9.54;;;9.54;;
82787;SDS011;72529;51.786;4.662;2024-02-21T04:59:15;10.05;;;10.05;;
82787;SDS011;72529;51.786;4.662;2024-02-21T05:01:40;11.20;;;11.18;;
82787;SDS011;72529;51.786;4.662;2024-02-21T05:04:06;10.99;;;10.90;;
82787;SDS011;72529;51.786;4.662;2024-02-21T05:06:31;10.59;;;10.55;;
82787;SDS011;72529;51.786;4.662;2024-02-21T05:08:57;10.14;;;10.13;;
82787;SDS011;72529;51.786;4.662;2024-02-21T05:11:23;10.51;;;10.51;;
82787;SDS011;72529;51.786;4.662;2024-02-21T05:13:49;10.40;;;10.38;;
82787;SDS011;72529;51.786;4.662;2024-02-21T05:16:15;10.30;;;10.29;;
82787;SDS011;72529;51.786;4.662;2024-02-21T05:18:41;10.39;;;10.38;;
82787;SDS011;72529;51.786;4.662;2024-02-21T05:21:07;10.78;;;10.78;;
82787;SDS011;72529;51.786;4.662;2024-02-21T05:23:33;10.94;;;10.87;;
82787;SDS011;72529;51.786;4.662;2024-02-21T05:25:58;10.87;;;10.82;;
82787;SDS011;72529;51.786;4.662;2024-02-21T05:28:24;10.91;;;10.87;;
82787;SDS011;72529;51.786;4.662;2024-02-21T05:30:49;11.35;;;11.20;;
82787;SDS011;72529;51.786;4.662;2024-02-21T05:33:15;11.34;;;11.29;;
82787;SDS011;72529;51.786;4.662;2024-02-21T05:35:46;11.15;;;11.07;;
82787;SDS011;72529;51.786;4.662;2024-02-21T05:38:13;11.83;;;11.76;;
82787;SDS011;72529;51.786;4.662;2024-02-21T05:40:39;12.51;;;12.45;;
82787;SDS011;72529;51.786;4.662;2024-02-21T05:43:04;12.46;;;12.39;;
82787;SDS011;72529;51.786;4.662;2024-02-21T05:45:30;12.79;;;12.73;;
82787;SDS011;72529;51.786;4.662;2024-02-21T05:47:56;12.85;;;12.75;;
82787;SDS011;72529;51.786;4.662;2024-02-21T05:50:22;12.58;;;12.48;;
82787;SDS011;72529;51.786;4.662;2024-02-21T05:52:51;13.04;;;12.93;;
82787;SDS011;72529;51.786;4.662;2024-02-21T05:55:17;12.90;;;12.81;;
82787;SDS011;72529;51.786;4.662;2024-02-21T05:57:43;13.18;;;13.08;;
82787;SDS011;72529;51.786;4.662;2024-02-21T06:00:08;13.41;;;13.24;;
82787;SDS011;72529;51.786;4.662;2024-02-21T06:02:34;13.70;;;13.59;;
82787;SDS011;72529;51.786;4.662;2024-02-21T06:04:59;12.94;;;12.87;;
82787;SDS011;72529;51.786;4.662;2024-02-21T06:07:25;12.93;;;12.89;;
82787;SDS011;72529;51.786;4.662;2024-02-21T06:09:50;13.14;;;13.06;;
82787;SDS011;72529;51.786;4.662;2024-02-21T06:12:28;13.15;;;12.98;;
82787;SDS011;72529;51.786;4.662;2024-02-21T06:14:53;12.95;;;12.84;;
82787;SDS011;72529;51.786;4.662;2024-02-21T06:17:18;13.23;;;13.19;;
82787;SDS011;72529;51.786;4.662;2024-02-21T06:19:44;13.98;;;13.89;;
82787;SDS011;72529;51.786;4.662;2024-02-21T06:22:10;13.77;;;13.70;;
82787;SDS011;72529;51.786;4.662;2024-02-21T06:24:36;13.86;;;13.85;;
82787;SDS011;72529;51.786;4.662;2024-02-21T06:27:03;14.43;;;14.35;;
82787;SDS011;72529;51.786;4.662;2024-02-21T06:29:29;14.66;;;14.59;;
82787;SDS011;72529;51.786;4.662;2024-02-21T06:31:54;14.70;;;14.62;;
82787;SDS011;72529;51.786;4.662;2024-02-21T06:34:19;14.50;;;14.37;;
82787;SDS011;72529;51.786;4.662;2024-02-21T06:36:45;14.97;;;14.71;;
82787;SDS011;72529;51.786;4.662;2024-02-21T06:39:10;14.79;;;14.63;;
82787;SDS011;72529;51.786;4.662;2024-02-21T06:41:36;15.19;;;15.09;;
82787;SDS011;72529;51.786;4.662;2024-02-21T06:44:02;14.60;;;14.53;;
82787;SDS011;72529;51.786;4.662;2024-02-21T06:46:28;15.15;;;15.06;;
82787;SDS011;72529;51.786;4.662;2024-02-21T06:48:55;15.07;;;15.01;;
82787;SDS011;72529;51.786;4.662;2024-02-21T06:51:21;15.84;;;15.73;;
82787;SDS011;72529;51.786;4.662;2024-02-21T06:53:47;16.08;;;16.06;;
82787;SDS011;72529;51.786;4.662;2024-02-21T06:56:13;16.58;;;16.56;;
82787;SDS011;72529;51.786;4.662;2024-02-21T06:58:38;17.04;;;17.00;;
82787;SDS011;72529;51.786;4.662;2024-02-21T07:01:04;17.14;;;17.05;;
82787;SDS011;72529;51.786;4.662;2024-02-21T07:03:29;16.82;;;16.72;;
82787;SDS011;72529;51.786;4.662;2024-02-21T07:05:55;17.91;;;17.88;;
82787;SDS011;72529;51.786;4.662;2024-02-21T07:08:20;17.28;;;17.26;;
82787;SDS011;72529;51.786;4.662;2024-02-21T07:10:47;17.50;;;17.45;;
82787;SDS011;72529;51.786;4.662;2024-02-21T07:13:12;17.74;;;17.66;;
82787;SDS011;72529;51.786;4.662;2024-02-21T07:15:38;17.67;;;17.63;;
82787;SDS011;72529;51.786;4.662;2024-02-21T07:18:03;18.12;;;18.08;;
82787;SDS011;72529;51.786;4.662;2024-02-21T07:20:29;17.75;;;17.75;;
82787;SDS011;72529;51.786;4.662;2024-02-21T07:22:55;17.50;;;17.46;;
82787;SDS011;72529;51.786;4.662;2024-02-21T07:25:20;17.33;;;17.20;;
82787;SDS011;72529;51.786;4.662;2024-02-21T07:27:45;17.28;;;17.21;;
82787;SDS011;72529;51.786;4.662;2024-02-21T07:30:11;16.59;;;16.56;;
82787;SDS011;72529;51.786;4.662;2024-02-21T07:32:37;16.15;;;16.05;;
82787;SDS011;72529;51.786;4.662;2024-02-21T07:35:02;16.74;;;16.68;;
82787;SDS011;72529;51.786;4.662;2024-02-21T07:37:28;16.87;;;16.81;;
82787;SDS011;72529;51.786;4.662;2024-02-21T07:39:53;16.48;;;16.41;;
82787;SDS011;72529;51.786;4.662;2024-02-21T07:42:19;15.91;;;15.86;;
82787;SDS011;72529;51.786;4.662;2024-02-21T07:44:45;16.00;;;15.99;;
82787;SDS011;72529;51.786;4.662;2024-02-21T07:47:10;16.97;;;16.88;;
82787;SDS011;72529;51.786;4.662;2024-02-21T07:49:40;16.47;;;16.39;;
82787;SDS011;72529;51.786;4.662;2024-02-21T07:52:06;16.23;;;16.22;;
82787;SDS011;72529;51.786;4.662;2024-02-21T07:54:32;17.03;;;16.92;;
82787;SDS011;72529;51.786;4.662;2024-02-21T07:56:58;16.44;;;16.37;;
82787;SDS011;72529;51.786;4.662;2024-02-21T07:59:23;16.36;;;16.27;;
82787;SDS011;72529;51.786;4.662;2024-02-21T08:01:49;16.20;;;16.13;;
82787;SDS011;72529;51.786;4.662;2024-02-21T08:04:14;16.49;;;16.44;;
82787;SDS011;72529;51.786;4.662;2024-02-21T08:06:39;16.60;;;16.55;;
82787;SDS011;72529;51.786;4.662;2024-02-21T08:09:05;16.24;;;16.22;;
82787;SDS011;72529;51.786;4.662;2024-02-21T08:11:30;16.04;;;16.03;;
82787;SDS011;72529;51.786;4.662;2024-02-21T08:13:56;16.20;;;16.13;;
82787;SDS011;72529;51.786;4.662;2024-02-21T08:16:22;16.81;;;16.79;;
82787;SDS011;72529;51.786;4.662;2024-02-21T08:18:47;17.23;;;17.19;;
82787;SDS011;72529;51.786;4.662;2024-02-21T08:21:13;17.11;;;17.10;;
82787;SDS011;72529;51.786;4.662;2024-02-21T08:23:38;17.93;;;17.84;;
82787;SDS011;72529;51.786;4.662;2024-02-21T08:26:04;16.91;;;16.87;;
82787;SDS011;72529;51.786;4.662;2024-02-21T08:28:29;17.93;;;17.84;;
82787;SDS011;72529;51.786;4.662;2024-02-21T08:30:55;17.20;;;17.18;;
82787;SDS011;72529;51.786;4.662;2024-02-21T08:33:20;18.08;;;18.03;;
82787;SDS011;72529;51.786;4.662;2024-02-21T08:35:50;18.10;;;18.08;;
82787;SDS011;72529;51.786;4.662;2024-02-21T08:38:16;17.28;;;17.28;;
82787;SDS011;72529;51.786;4.662;2024-02-21T08:40:42;17.85;;;17.83;;
82787;SDS011;72529;51.786;4.662;2024-02-21T08:43:07;16.86;;;16.77;;
82787;SDS011;72529;51.786;4.662;2024-02-21T08:45:32;16.90;;;16.86;;
82787;SDS011;72529;51.786;4.662;2024-02-21T08:47:58;16.58;;;16.49;;
82787;SDS011;72529;51.786;4.662;2024-02-21T08:50:23;16.35;;;16.29;;
82787;SDS011;72529;51.786;4.662;2024-02-21T08:52:49;15.83;;;15.80;;
82787;SDS011;72529;51.786;4.662;2024-02-21T08:55:14;16.00;;;15.96;;
82787;SDS011;72529;51.786;4.662;2024-02-21T08:57:40;15.21;;;15.18;;
82787;SDS011;72529;51.786;4.662;2024-02-21T09:00:06;15.20;;;15.19;;
82787;SDS011;72529;51.786;4.662;2024-02-21T09:02:35;15.22;;;15.14;;
82787;SDS011;72529;51.786;4.662;2024-02-21T09:05:05;15.78;;;15.68;;
82787;SDS011;72529;51.786;4.662;2024-02-21T09:07:30;15.71;;;15.64;;
82787;SDS011;72529;51.786;4.662;2024-02-21T09:09:56;15.74;;;15.71;;
82787;SDS011;72529;51.786;4.662;2024-02-21T09:12:21;15.10;;;15.08;;
82787;SDS011;72529;51.786;4.662;2024-02-21T09:14:47;15.37;;;15.30;;
82787;SDS011;72529;51.786;4.662;2024-02-21T09:17:15;15.04;;;14.97;;
82787;SDS011;72529;51.786;4.662;2024-02-21T09:19:42;14.86;;;14.83;;
82787;SDS011;72529;51.786;4.662;2024-02-21T09:22:09;14.71;;;14.69;;
82787;SDS011;72529;51.786;4.662;2024-02-21T09:24:35;14.85;;;14.80;;
82787;SDS011;72529;51.786;4.662;2024-02-21T09:27:00;14.35;;;14.34;;
82787;SDS011;72529;51.786;4.662;2024-02-21T09:29:25;13.93;;;13.93;;
82787;SDS011;72529;51.786;4.662;2024-02-21T09:31:51;14.07;;;14.07;;
82787;SDS011;72529;51.786;4.662;2024-02-21T09:34:17;13.60;;;13.54;;
82787;SDS011;72529;51.786;4.662;2024-02-21T09:36:44;13.89;;;13.89;;
82787;SDS011;72529;51.786;4.662;2024-02-21T09:39:09;13.24;;;13.23;;
82787;SDS011;72529;51.786;4.662;2024-02-21T09:41:40;13.27;;;13.27;;
82787;SDS011;72529;51.786;4.662;2024-02-21T09:44:13;13.52;;;13.52;;
82787;SDS011;72529;51.786;4.662;2024-02-21T09:46:45;13.38;;;13.38;;
82787;SDS011;72529;51.786;4.662;2024-02-21T09:49:30;13.14;;;13.08;;
82787;SDS011;72529;51.786;4.662;2024-02-21T09:52:03;13.78;;;13.73;;
82787;SDS011;72529;51.786;4.662;2024-02-21T09:54:32;14.24;;;14.24;;
82787;SDS011;72529;51.786;4.662;2024-02-21T09:57:02;14.02;;;14.02;;
82787;SDS011;72529;51.786;4.662;2024-02-21T09:59:31;13.64;;;13.64;;
82787;SDS011;72529;51.786;4.662;2024-02-21T10:01:58;13.74;;;13.74;;
82787;SDS011;72529;51.786;4.662;2024-02-21T10:04:25;13.93;;;13.92;;
82787;SDS011;72529;51.786;4.662;2024-02-21T10:06:51;13.80;;;13.79;;
82787;SDS011;72529;51.786;4.662;2024-02-21T10:09:25;14.44;;;14.44;;
82787;SDS011;72529;51.786;4.662;2024-02-21T10:11:55;14.54;;;14.52;;
82787;SDS011;72529;51.786;4.662;2024-02-21T10:14:32;14.06;;;14.05;;
82787;SDS011;72529;51.786;4.662;2024-02-21T10:16:57;13.49;;;13.49;;
82787;SDS011;72529;51.786;4.662;2024-02-21T10:19:24;13.68;;;13.68;;
82787;SDS011;72529;51.786;4.662;2024-02-21T10:21:59;12.90;;;12.90;;
82787;SDS011;72529;51.786;4.662;2024-02-21T10:24:27;12.65;;;12.65;;
82787;SDS011;72529;51.786;4.662;2024-02-21T10:27:03;13.52;;;13.52;;
82787;SDS011;72529;51.786;4.662;2024-02-21T10:29:34;13.38;;;13.38;;
82787;SDS011;72529;51.786;4.662;2024-02-21T10:32:13;13.74;;;13.74;;
82787;SDS011;72529;51.786;4.662;2024-02-21T10:34:41;13.95;;;13.92;;
82787;SDS011;72529;51.786;4.662;2024-02-21T10:37:10;14.39;;;14.28;;
82787;SDS011;72529;51.786;4.662;2024-02-21T10:39:37;15.10;;;15.10;;
82787;SDS011;72529;51.786;4.662;2024-02-21T10:42:06;15.01;;;15.00;;
82787;SDS011;72529;51.786;4.662;2024-02-21T10:44:34;15.84;;;15.82;;
82787;SDS011;72529;51.786;4.662;2024-02-21T10:47:05;16.61;;;16.61;;
82787;SDS011;72529;51.786;4.662;2024-02-21T10:49:35;16.61;;;16.61;;
82787;SDS011;72529;51.786;4.662;2024-02-21T10:55:26;16.09;;;16.09;;
82787;SDS011;72529;51.786;4.662;2024-02-21T10:58:02;16.08;;;16.08;;
82787;SDS011;72529;51.786;4.662;2024-02-21T11:00:28;15.58;;;15.58;;
82787;SDS011;72529;51.786;4.662;2024-02-21T11:02:56;15.85;;;15.85;;
82787;SDS011;72529;51.786;4.662;2024-02-21T11:05:24;15.93;;;15.90;;
82787;SDS011;72529;51.786;4.662;2024-02-21T11:07:52;16.99;;;16.98;;
82787;SDS011;72529;51.786;4.662;2024-02-21T11:10:24;16.60;;;16.60;;
82787;SDS011;72529;51.786;4.662;2024-02-21T11:13:10;16.59;;;16.59;;
82787;SDS011;72529;51.786;4.662;2024-02-21T11:15:36;16.83;;;16.82;;
82787;SDS011;72529;51.786;4.662;2024-02-21T11:18:01;15.86;;;15.86;;
82787;SDS011;72529;51.786;4.662;2024-02-21T11:20:36;15.79;;;15.79;;
82787;SDS011;72529;51.786;4.662;2024-02-21T11:23:02;15.43;;;15.43;;
82787;SDS011;72529;51.786;4.662;2024-02-21T11:25:28;15.52;;;15.52;;
82787;SDS011;72529;51.786;4.662;2024-02-21T11:28:07;15.28;;;15.28;;
82787;SDS011;72529;51.786;4.662;2024-02-21T11:30:35;14.59;;;14.59;;
82787;SDS011;72529;51.786;4.662;2024-02-21T11:33:05;14.30;;;14.30;;
82787;SDS011;72529;51.786;4.662;2024-02-21T11:35:35;13.37;;;13.37;;
82787;SDS011;72529;51.786;4.662;2024-02-21T11:38:11;13.18;;;13.18;;
82787;SDS011;72529;51.786;4.662;2024-02-21T11:40:40;13.43;;;13.43;;
82787;SDS011;72529;51.786;4.662;2024-02-21T11:43:07;13.27;;;13.27;;
82787;SDS011;72529;51.786;4.662;2024-02-21T11:45:33;13.50;;;13.50;;
82787;SDS011;72529;51.786;4.662;2024-02-21T11:47:59;12.93;;;12.93;;
82787;SDS011;72529;51.786;4.662;2024-02-21T11:50:26;12.66;;;12.66;;
82787;SDS011;72529;51.786;4.662;2024-02-21T11:52:54;12.61;;;12.61;;
82787;SDS011;72529;51.786;4.662;2024-02-21T11:55:20;12.23;;;12.23;;
82787;SDS011;72529;51.786;4.662;2024-02-21T11:57:47;12.56;;;12.56;;
82787;SDS011;72529;51.786;4.662;2024-02-21T12:00:17;12.28;;;12.28;;
82787;SDS011;72529;51.786;4.662;2024-02-21T12:02:46;11.77;;;11.77;;
82787;SDS011;72529;51.786;4.662;2024-02-21T12:05:13;11.11;;;11.11;;
82787;SDS011;72529;51.786;4.662;2024-02-21T12:07:39;10.33;;;10.32;;
82787;SDS011;72529;51.786;4.662;2024-02-21T12:10:12;10.40;;;10.40;;
82787;SDS011;72529;51.786;4.662;2024-02-21T12:12:38;10.29;;;10.29;;
82787;SDS011;72529;51.786;4.662;2024-02-21T12:15:04;10.01;;;10.01;;
82787;SDS011;72529;51.786;4.662;2024-02-21T12:17:34;9.80;;;9.80;;
82787;SDS011;72529;51.786;4.662;2024-02-21T12:20:01;10.85;;;10.85;;
82787;SDS011;72529;51.786;4.662;2024-02-21T12:22:30;10.39;;;10.39;;
82787;SDS011;72529;51.786;4.662;2024-02-21T12:24:57;10.29;;;10.29;;
82787;SDS011;72529;51.786;4.662;2024-02-21T12:27:23;9.86;;;9.86;;
82787;SDS011;72529;51.786;4.662;2024-02-21T12:29:50;10.13;;;10.13;;
82787;SDS011;72529;51.786;4.662;2024-02-21T12:32:15;10.17;;;10.17;;
82787;SDS011;72529;51.786;4.662;2024-02-21T12:34:41;10.02;;;10.02;;
82787;SDS011;72529;51.786;4.662;2024-02-21T12:37:06;10.07;;;10.07;;
82787;SDS011;72529;51.786;4.662;2024-02-21T12:39:32;10.69;;;10.69;;
82787;SDS011;72529;51.786;4.662;2024-02-21T12:41:58;11.16;;;11.16;;
82787;SDS011;72529;51.786;4.662;2024-02-21T12:44:23;10.64;;;10.64;;
82787;SDS011;72529;51.786;4.662;2024-02-21T12:46:49;10.56;;;10.56;;
82787;SDS011;72529;51.786;4.662;2024-02-21T12:49:17;11.04;;;11.04;;
82787;SDS011;72529;51.786;4.662;2024-02-21T12:51:43;10.64;;;10.64;;
82787;SDS011;72529;51.786;4.662;2024-02-21T12:54:11;10.72;;;10.72;;
82787;SDS011;72529;51.786;4.662;2024-02-21T12:56:37;10.25;;;10.25;;
82787;SDS011;72529;51.786;4.662;2024-02-21T12:59:02;10.14;;;10.14;;
82787;SDS011;72529;51.786;4.662;2024-02-21T13:01:28;10.31;;;10.31;;
82787;SDS011;72529;51.786;4.662;2024-02-21T13:03:54;10.95;;;10.95;;
82787;SDS011;72529;51.786;4.662;2024-02-21T13:06:19;11.44;;;11.44;;
82787;SDS011;72529;51.786;4.662;2024-02-21T13:08:44;9.85;;;9.85;;
82787;SDS011;72529;51.786;4.662;2024-02-21T13:11:11;9.12;;;9.12;;
82787;SDS011;72529;51.786;4.662;2024-02-21T13:13:38;8.85;;;8.85;;
82787;SDS011;72529;51.786;4.662;2024-02-21T13:16:03;9.05;;;9.05;;
82787;SDS011;72529;51.786;4.662;2024-02-21T13:18:29;9.18;;;9.18;;
82787;SDS011;72529;51.786;4.662;2024-02-21T13:20:55;8.61;;;8.61;;
82787;SDS011;72529;51.786;4.662;2024-02-21T13:23:21;8.22;;;8.22;;
82787;SDS011;72529;51.786;4.662;2024-02-21T13:25:46;8.20;;;8.20;;
82787;SDS011;72529;51.786;4.662;2024-02-21T13:28:12;7.94;;;7.94;;
82787;SDS011;72529;51.786;4.662;2024-02-21T13:30:38;7.70;;;7.70;;
82787;SDS011;72529;51.786;4.662;2024-02-21T13:33:05;7.43;;;7.43;;
82787;SDS011;72529;51.786;4.662;2024-02-21T13:35:31;7.38;;;7.38;;
82787;SDS011;72529;51.786;4.662;2024-02-21T13:37:57;7.45;;;7.45;;
82787;SDS011;72529;51.786;4.662;2024-02-21T13:40:22;7.68;;;7.68;;
82787;SDS011;72529;51.786;4.662;2024-02-21T13:42:48;7.64;;;7.64;;
82787;SDS011;72529;51.786;4.662;2024-02-21T13:45:14;7.72;;;7.72;;
82787;SDS011;72529;51.786;4.662;2024-02-21T13:47:40;7.84;;;7.84;;
82787;SDS011;72529;51.786;4.662;2024-02-21T13:50:06;7.92;;;7.92;;
82787;SDS011;72529;51.786;4.662;2024-02-21T13:52:36;7.64;;;7.64;;
82787;SDS011;72529;51.786;4.662;2024-02-21T13:55:02;8.00;;;8.00;;
82787;SDS011;72529;51.786;4.662;2024-02-21T13:57:28;7.94;;;7.94;;
82787;SDS011;72529;51.786;4.662;2024-02-21T13:59:53;8.32;;;8.32;;
82787;SDS011;72529;51.786;4.662;2024-02-21T14:02:19;8.26;;;8.26;;
82787;SDS011;72529;51.786;4.662;2024-02-21T14:04:44;8.76;;;8.76;;
82787;SDS011;72529;51.786;4.662;2024-02-21T14:07:09;9.24;;;9.24;;
82787;SDS011;72529;51.786;4.662;2024-02-21T14:09:35;9.51;;;9.51;;
82787;SDS011;72529;51.786;4.662;2024-02-21T14:12:01;9.50;;;9.50;;
82787;SDS011;72529;51.786;4.662;2024-02-21T14:14:27;9.65;;;9.65;;
82787;SDS011;72529;51.786;4.662;2024-02-21T14:16:52;9.65;;;9.65;;
82787;SDS011;72529;51.786;4.662;2024-02-21T14:19:18;9.67;;;9.67;;
82787;SDS011;72529;51.786;4.662;2024-02-21T14:21:44;9.69;;;9.69;;
82787;SDS011;72529;51.786;4.662;2024-02-21T14:24:09;10.06;;;10.06;;
82787;SDS011;72529;51.786;4.662;2024-02-21T14:26:36;9.85;;;9.85;;
82787;SDS011;72529;51.786;4.662;2024-02-21T14:29:02;10.11;;;10.11;;
82787;SDS011;72529;51.786;4.662;2024-02-21T14:31:28;9.22;;;9.22;;
82787;SDS011;72529;51.786;4.662;2024-02-21T14:33:56;9.58;;;9.58;;
82787;SDS011;72529;51.786;4.662;2024-02-21T14:36:21;9.26;;;9.26;;